Time;durP1;ratioP1;P1;durP2;ratioP2;P2;SDS_P1;SDS_P2;PMS_P1;PMS_P2;Temp;Humidity;BMP_temperature;BMP_pressure;BME280_temperature;BME280_humidity;BME280_pressure;Samples;Min_cycle;Max_cycle;Signal;HPM_P1;HPM_P2
2022/10/31 00:03:19;;;;;;;18.83;11.70;;;15.20;69.00;;;;;;21081464;28;20047;-60
2022/10/31 00:13:20;;;;;;;16.27;11.48;;;15.20;69.00;;;;;;21081441;28;20480;-59
2022/10/31 00:23:22;;;;;;;16.02;10.55;;;15.30;68.40;;;;;;21081883;28;20086;-58
2022/10/31 00:33:23;;;;;;;11.57;9.48;;;15.20;68.00;;;;;;21080716;28;20488;-62
2022/10/31 00:43:25;;;;;;;13.80;10.13;;;15.00;67.80;;;;;;21079868;28;20462;-60
2022/10/31 00:53:26;;;;;;;15.55;10.20;;;14.70;68.20;;;;;;21079010;28;20087;-59
2022/10/31 01:03:31;;;;;;;13.73;9.50;;;14.60;69.00;;;;;;21079397;28;20135;-61
2022/10/31 01:13:33;;;;;;;;;;;14.60;69.30;;;;;;21082877;28;20051;-60
2022/10/31 01:23:35;;;;;;;14.77;11.93;;;14.50;69.20;;;;;;21094838;28;20431;-59
2022/10/31 01:33:38;;;;;;;16.00;10.85;;;14.40;69.50;;;;;;21093569;28;20055;-59
2022/10/31 01:43:46;;;;;;;14.07;10.43;;;14.30;69.60;;;;;;21092978;28;20059;-58
2022/10/31 01:53:49;;;;;;;12.73;9.23;;;14.20;69.90;;;;;;21092659;28;20051;-60
2022/10/31 02:03:51;;;;;;;14.70;9.70;;;14.10;70.30;;;;;;21093331;28;20048;-58
2022/10/31 02:13:53;;;;;;;14.35;10.82;;;14.00;70.70;;;;;;21091271;28;20545;-60
2022/10/31 02:24:16;;;;;;;12.87;9.40;;;14.00;70.70;;;;;;21088961;28;20048;-60
2022/10/31 02:34:22;;;;;;;11.75;8.60;;;14.10;70.20;;;;;;21089908;28;20400;-59
2022/10/31 02:44:34;;;;;;;13.95;9.77;;;14.20;70.40;;;;;;21088143;28;20078;-59
2022/10/31 02:54:36;;;;;;;13.85;9.55;;;14.20;70.40;;;;;;21087468;28;20056;-59
2022/10/31 03:04:53;;;;;;;12.98;9.93;;;14.20;70.70;;;;;;21087212;28;20070;-59
2022/10/31 03:15:04;;;;;;;12.43;9.38;;;14.20;70.80;;;;;;21085726;28;20048;-58
2022/10/31 03:25:08;;;;;;;11.18;8.20;;;14.20;70.80;;;;;;21085354;28;20052;-59
2022/10/31 03:35:15;;;;;;;12.20;9.32;;;14.10;70.90;;;;;;21084506;28;20085;-60
2022/10/31 03:45:29;;;;;;;11.80;9.38;;;14.10;71.20;;;;;;21082342;28;20052;-59
2022/10/31 03:55:57;;;;;;;16.85;10.68;;;14.20;71.00;;;;;;21083260;28;20055;-59
2022/10/31 04:06:06;;;;;;;13.95;10.45;;;14.30;70.60;;;;;;21082158;28;20134;-60
2022/10/31 04:16:09;;;;;;;16.15;10.57;;;14.40;70.60;;;;;;21082487;28;20469;-60
2022/10/31 04:26:12;;;;;;;;;;;14.60;70.40;;;;;;21081953;28;20051;-59
2022/10/31 04:36:34;;;;;;;11.48;8.38;;;14.60;70.10;;;;;;21079562;28;19924;-59
2022/10/31 04:46:55;;;;;;;11.57;9.52;;;14.70;69.60;;;;;;21077996;28;20056;-59
2022/10/31 04:57:16;;;;;;;11.70;9.60;;;14.50;69.70;;;;;;21080740;28;20396;-59
2022/10/31 05:07:23;;;;;;;14.02;9.07;;;14.30;70.10;;;;;;21061682;28;20389;-60
2022/10/31 05:17:26;;;;;;;11.55;8.52;;;14.20;70.40;;;;;;21078700;28;20127;-58
2022/10/31 05:27:32;;;;;;;14.20;10.20;;;14.20;70.50;;;;;;21078697;28;20052;-59
2022/10/31 05:37:35;;;;;;;13.95;9.68;;;14.00;71.10;;;;;;21077373;28;20055;-59
2022/10/31 05:47:38;;;;;;;16.58;10.38;;;14.10;71.00;;;;;;21076882;28;20091;-59
2022/10/31 05:57:40;;;;;;;12.30;10.27;;;14.00;71.20;;;;;;21076831;28;20048;-59
2022/10/31 06:07:42;;;;;;;19.45;10.32;;;14.10;71.20;;;;;;21090443;28;20403;-59
2022/10/31 06:17:43;;;;;;;18.42;10.63;;;14.10;71.10;;;;;;21090645;28;20129;-59
2022/10/31 06:27:45;;;;;;;15.98;10.85;;;14.30;70.80;;;;;;21089792;28;20052;-59
2022/10/31 06:37:53;;;;;;;16.00;10.98;;;14.30;70.70;;;;;;21089348;28;20044;-59
2022/10/31 06:47:56;;;;;;;17.13;11.25;;;14.40;70.70;;;;;;21087954;28;20056;-59
2022/10/31 06:58:00;;;;;;;16.08;11.32;;;14.50;70.50;;;;;;21087469;28;20051;-59
2022/10/31 07:08:06;;;;;;;16.25;10.40;;;14.50;70.30;;;;;;21068820;28;20109;-59
2022/10/31 07:18:10;;;;;;;15.30;10.73;;;14.60;70.40;;;;;;21085270;28;20044;-58
2022/10/31 07:28:11;;;;;;;19.43;10.80;;;14.60;70.20;;;;;;21085484;28;20052;-61
2022/10/31 07:38:14;;;;;;;28.35;11.55;;;14.60;70.40;;;;;;21084618;28;20535;-59
2022/10/31 07:48:16;;;;;;;17.80;11.07;;;14.70;70.00;;;;;;21083328;28;20088;-59
2022/10/31 07:58:18;;;;;;;19.55;12.00;;;14.80;70.10;;;;;;21083217;28;20511;-60
2022/10/31 08:08:19;;;;;;;21.08;12.52;;;14.80;70.10;;;;;;21082754;28;20427;-59
2022/10/31 08:18:23;;;;;;;18.25;13.13;;;15.00;70.30;;;;;;21080900;28;20106;-59
2022/10/31 08:28:25;;;;;;;21.03;12.93;;;15.20;70.20;;;;;;21080371;28;20454;-59
2022/10/31 08:38:26;;;;;;;21.60;13.50;;;15.30;70.10;;;;;;21079990;28;20125;-60
2022/10/31 08:48:29;;;;;;;15.77;11.70;;;15.50;69.80;;;;;;21079019;28;20056;-61
2022/10/31 08:58:30;;;;;;;19.50;11.90;;;15.60;69.30;;;;;;21078753;28;20048;-60
2022/10/31 09:08:32;;;;;;;20.95;13.15;;;15.70;68.90;;;;;;21077988;28;20048;-59
2022/10/31 09:18:34;;;;;;;20.58;11.02;;;15.80;68.80;;;;;;21077842;28;20044;-58
2022/10/31 09:28:36;;;;;;;18.13;11.98;;;15.80;68.90;;;;;;21077281;28;20083;-61
2022/10/31 09:38:37;;;;;;;21.02;12.23;;;16.00;68.90;;;;;;21086692;28;20136;-60
2022/10/31 09:49:00;;;;;;;19.50;12.73;;;16.00;69.20;;;;;;21092903;28;20475;-61
2022/10/31 09:59:05;;;;;;;17.70;11.10;;;16.20;69.00;;;;;;21092245;28;20052;-59
2022/10/31 10:09:07;;;;;;;;;;;16.30;69.20;;;;;;21092879;28;20044;-61
2022/10/31 10:19:45;;;;;;;16.77;11.70;;;16.40;68.70;;;;;;21090425;28;19924;-61
2022/10/31 10:29:47;;;;;;;19.73;10.32;;;16.70;68.10;;;;;;21090285;28;20044;-58
2022/10/31 10:39:55;;;;;;;16.67;10.45;;;17.30;66.50;;;;;;21089714;28;20084;-61
2022/10/31 10:49:58;;;;;;;16.02;11.95;;;18.10;63.80;;;;;;21087242;28;20060;-63
2022/10/31 11:00:16;;;;;;;22.92;10.60;;;18.60;62.20;;;;;;21088369;28;20136;-61
2022/10/31 11:10:18;;;;;;;22.10;10.70;;;19.20;60.30;;;;;;21086844;28;20040;-66
2022/10/31 11:20:19;;;;;;;14.98;10.30;;;19.40;59.60;;;;;;21086647;28;20086;-63
2022/10/31 11:30:21;;;;;;;16.40;10.45;;;19.50;59.50;;;;;;21085533;28;20083;-62
2022/10/31 11:40:25;;;;;;;19.23;10.25;;;19.70;58.40;;;;;;21084540;28;20052;-62
2022/10/31 11:50:38;;;;;;;19.55;12.27;;;19.80;57.70;;;;;;21083973;28;20055;-62
2022/10/31 12:00:50;;;;;;;21.80;10.80;;;19.90;57.70;;;;;;21082599;28;20105;-61
2022/10/31 12:11:25;;;;;;;17.08;9.77;;;19.70;58.20;;;;;;21082941;28;20484;-60
2022/10/31 12:21:33;;;;;;;26.95;12.80;;;19.80;58.00;;;;;;21082186;28;20146;-64
2022/10/31 12:31:43;;;;;;;53.10;16.08;;;19.70;58.70;;;;;;21081115;28;20051;-66
2022/10/31 12:42:11;;;;;;;44.72;12.88;;;19.90;58.10;;;;;;21079803;28;20055;-63
2022/10/31 12:52:43;;;;;;;19.27;11.02;;;19.90;57.90;;;;;;20739834;28;20128;-64
2022/10/31 13:03:12;;;;;;;24.08;12.65;;;20.00;57.70;;;;;;20739170;28;20049;-60
2022/10/31 13:13:26;;;;;;;23.20;11.70;;;20.10;59.30;;;;;;20748250;28;20116;-62
2022/10/31 13:23:37;;;;;;;21.10;12.27;;;20.00;58.90;;;;;;20856607;28;20048;-60
2022/10/31 13:33:44;;;;;;;23.40;14.20;;;20.10;58.30;;;;;;21094285;28;20048;-59
2022/10/31 13:43:51;;;;;;;20.50;12.73;;;20.00;59.30;;;;;;21093618;28;20051;-59
2022/10/31 13:54:00;;;;;;;26.83;15.30;;;20.10;60.00;;;;;;21092221;28;20048;-59
2022/10/31 14:04:04;;;;;;;22.92;11.13;;;19.30;61.80;;;;;;21091539;28;20135;-60
2022/10/31 14:14:11;;;;;;;18.60;9.05;;;18.90;61.80;;;;;;21090905;28;20450;-59
2022/10/31 14:24:35;;;;;;;13.93;7.65;;;18.70;63.90;;;;;;21089709;28;20063;-56
2022/10/31 14:34:42;;;;;;;19.33;8.83;;;18.60;64.00;;;;;;21089702;28;20131;-61
2022/10/31 14:44:47;;;;;;;15.77;7.72;;;18.50;67.00;;;;;;21088784;28;20082;-55
2022/10/31 14:54:53;;;;;;;20.08;9.25;;;18.40;67.70;;;;;;21088318;28;20128;-60
2022/10/31 15:04:56;;;;;;;37.90;27.45;;;18.40;68.30;;;;;;21087826;28;20052;-58
2022/10/31 15:15:11;;;;;;;14.35;7.28;;;18.30;67.80;;;;;;21087344;28;20524;-57
2022/10/31 15:25:21;;;;;;;12.98;6.70;;;18.30;68.90;;;;;;21085145;28;20044;-56
2022/10/31 15:35:29;;;;;;;14.60;7.00;;;18.30;68.10;;;;;;21084673;28;20047;-60
2022/10/31 15:45:31;;;;;;;12.55;6.82;;;18.20;67.70;;;;;;21084189;28;20496;-60
2022/10/31 15:55:38;;;;;;;12.32;8.00;;;18.20;69.40;;;;;;21083448;28;20056;-56
2022/10/31 16:05:51;;;;;;;16.45;7.78;;;18.00;71.30;;;;;;21082261;28;20083;-58
2022/10/31 16:15:57;;;;;;;17.03;10.97;;;17.80;72.60;;;;;;21080555;28;20131;-61
2022/10/31 16:26:05;;;;;;;22.95;12.73;;;17.80;74.10;;;;;;21080453;28;20048;-56
2022/10/31 16:36:30;;;;;;;13.02;8.77;;;17.70;74.50;;;;;;21080112;28;20106;-56
2022/10/31 16:46:32;;;;;;;12.52;6.00;;;17.70;73.90;;;;;;21077974;28;20052;-57
2022/10/31 16:56:35;;;;;;;10.57;6.32;;;17.70;70.90;;;;;;21079124;28;20048;-61
2022/10/31 17:06:36;;;;;;;14.50;7.13;;;17.90;70.00;;;;;;21078481;28;20044;-61
2022/10/31 17:16:38;;;;;;;34.63;21.88;;;17.90;69.70;;;;;;21078077;28;20040;-56
2022/10/31 17:26:40;;;;;;;8.73;4.80;;;17.80;68.40;;;;;;21078170;28;20052;-60
2022/10/31 17:36:41;;;;;;;5.90;2.75;;;17.70;66.20;;;;;;21077612;28;20040;-60
2022/10/31 17:46:43;;;;;;;4.88;2.65;;;17.60;68.00;;;;;;21076242;28;20048;-58
2022/10/31 17:56:45;;;;;;;6.82;2.90;;;17.60;67.50;;;;;;21079954;28;20476;-61
2022/10/31 18:06:48;;;;;;;5.30;2.55;;;17.50;67.70;;;;;;21072699;28;20480;-58
2022/10/31 18:16:50;;;;;;;6.40;2.87;;;17.60;67.80;;;;;;21090527;28;20051;-56
2022/10/31 18:26:52;;;;;;;6.53;3.33;;;17.60;68.10;;;;;;21089484;28;20048;-55
2022/10/31 18:36:53;;;;;;;6.78;3.90;;;17.60;67.90;;;;;;21088600;28;20040;-61
2022/10/31 18:46:54;;;;;;;5.22;3.75;;;17.60;68.30;;;;;;21086924;28;20575;-59
2022/10/31 18:56:55;;;;;;;5.68;3.08;;;17.60;68.50;;;;;;21087150;28;20084;-61
2022/10/31 19:06:57;;;;;;;5.93;3.25;;;17.50;68.20;;;;;;21086471;28;20133;-60
2022/10/31 19:16:58;;;;;;;10.05;4.47;;;17.60;68.30;;;;;;21084874;28;20076;-59
2022/10/31 19:27:00;;;;;;;11.18;6.18;;;17.60;68.50;;;;;;21083973;28;20060;-62
2022/10/31 19:37:01;;;;;;;9.25;6.07;;;17.60;69.20;;;;;;21083998;28;20055;-59
2022/10/31 19:47:02;;;;;;;9.75;4.13;;;17.50;69.10;;;;;;21081547;28;20056;-55
2022/10/31 19:57:04;;;;;;;11.00;4.78;;;17.50;69.50;;;;;;21082351;28;20056;-61
2022/10/31 20:07:07;;;;;;;10.00;7.38;;;17.40;69.40;;;;;;21081055;28;20059;-58
2022/10/31 20:17:08;;;;;;;8.95;5.45;;;17.40;69.40;;;;;;21080704;28;20048;-58
2022/10/31 20:27:09;;;;;;;12.77;6.53;;;17.50;69.10;;;;;;21080020;28;20079;-60
2022/10/31 20:37:11;;;;;;;8.93;5.50;;;17.40;70.50;;;;;;21078441;28;20047;-58
2022/10/31 20:47:12;;;;;;;9.23;5.63;;;17.30;70.40;;;;;;21077949;28;20149;-59
2022/10/31 20:57:14;;;;;;;11.18;6.95;;;17.20;70.50;;;;;;21078624;28;20051;-59
2022/10/31 21:07:15;;;;;;;9.10;6.50;;;17.20;70.80;;;;;;21077742;28;20105;-59
2022/10/31 21:17:16;;;;;;;9.25;5.60;;;17.30;70.60;;;;;;21077806;28;20500;-61
2022/10/31 21:27:18;;;;;;;8.90;7.03;;;17.20;70.60;;;;;;21078018;28;20075;-59
2022/10/31 21:37:19;;;;;;;12.95;7.18;;;17.30;70.90;;;;;;21091261;28;20508;-61
2022/10/31 21:47:20;;;;;;;11.10;6.35;;;17.30;70.70;;;;;;21092518;28;20091;-58
2022/10/31 21:57:22;;;;;;;8.95;5.53;;;17.20;70.90;;;;;;21091766;28;20048;-59
2022/10/31 22:07:23;;;;;;;12.15;7.15;;;17.20;70.90;;;;;;21092869;28;20522;-56
2022/10/31 22:17:25;;;;;;;10.60;6.28;;;17.20;71.40;;;;;;21091069;28;20040;-55
2022/10/31 22:27:26;;;;;;;9.50;6.35;;;17.10;71.50;;;;;;21089507;28;20048;-60
2022/10/31 22:37:27;;;;;;;10.45;6.80;;;17.10;71.80;;;;;;21089420;28;20071;-60
2022/10/31 22:47:28;;;;;;;12.60;8.30;;;17.10;71.70;;;;;;21086635;28;20492;-61
2022/10/31 22:57:30;;;;;;;13.23;7.93;;;17.10;71.90;;;;;;21088500;28;20076;-58
2022/10/31 23:07:31;;;;;;;10.57;6.90;;;17.10;72.20;;;;;;21087821;28;20044;-55
2022/10/31 23:17:32;;;;;;;11.82;6.25;;;17.00;72.30;;;;;;21086167;28;20044;-57
2022/10/31 23:27:34;;;;;;;12.77;7.57;;;17.00;72.10;;;;;;21085460;28;20057;-59
2022/10/31 23:37:37;;;;;;;12.65;8.00;;;16.90;73.00;;;;;;21084725;28;20048;-57
2022/10/31 23:47:38;;;;;;;12.95;7.10;;;16.90;73.30;;;;;;21082885;28;20077;-58
2022/10/31 23:57:40;;;;;;;11.45;6.88;;;16.70;73.50;;;;;;21083395;28;20072;-56
